Time;durP1;ratioP1;P1;durP2;ratioP2;P2;SDS_P1;SDS_P2;PMS_P1;PMS_P2;Temp;Humidity;BMP_temperature;BMP_pressure;BME280_temperature;BME280_humidity;BME280_pressure;Samples;Min_cycle;Max_cycle;Signal;HPM_P1;HPM_P2
2022/10/05 00:01:52;;;;;;;18.10;10.40;;;;;;;6.96;89.22;95324.12;1685056;85;21156;-51
2022/10/05 00:04:22;;;;;;;11.85;8.85;;;;;;;7.04;89.38;95326.94;1683741;85;21006;-52
2022/10/05 00:07:18;;;;;;;12.35;8.40;;;;;;;7.11;89.36;95333.09;1675881;84;21022;-52
2022/10/05 00:09:55;;;;;;;11.68;7.37;;;;;;;7.10;89.17;95330.76;1675625;84;21028;-51
2022/10/05 00:12:22;;;;;;;6.47;5.85;;;;;;;7.14;89.38;95332.88;1675752;84;20982;-52
2022/10/05 00:14:55;;;;;;;16.10;12.23;;;;;;;7.21;89.15;95330.83;1676233;84;22005;-52
2022/10/05 00:17:25;;;;;;;19.48;12.85;;;;;;;7.21;88.72;95333.56;1677418;84;21668;-52
2022/10/05 00:19:54;;;;;;;19.60;13.65;;;;;;;7.21;88.80;95333.56;1676191;84;21057;-51
2022/10/05 00:22:25;;;;;;;21.25;11.50;;;;;;;7.26;89.07;95338.57;1675451;85;21069;-52
2022/10/05 00:24:57;;;;;;;13.70;9.48;;;;;;;7.32;88.91;95336.91;1676434;85;21104;-51
2022/10/05 00:27:27;;;;;;;20.10;14.00;;;;;;;7.34;88.86;95335.91;1684631;84;21200;-50
2022/10/05 00:29:58;;;;;;;22.07;13.98;;;;;;;7.38;88.56;95343.47;1673088;85;21056;-51
2022/10/05 00:32:27;;;;;;;27.50;14.23;;;;;;;7.35;88.12;95344.30;1665797;85;20969;-51
2022/10/05 00:34:55;;;;;;;18.48;13.28;;;;;;;7.32;88.10;95349.23;1639455;86;21519;-51
2022/10/05 00:37:24;;;;;;;24.37;13.55;;;;;;;7.34;88.33;95357.80;1639668;86;21436;-50
2022/10/05 00:39:52;;;;;;;16.70;9.33;;;;;;;7.32;88.26;95356.07;1665654;85;21213;-53
2022/10/05 00:42:38;;;;;;;8.23;6.37;;;;;;;7.31;88.41;95364.10;1706837;83;21088;-51
2022/10/05 00:46:01;;;;;;;19.95;11.60;;;;;;;7.31;88.44;95355.89;1669360;84;21021;-51
2022/10/05 00:48:33;;;;;;;;;;;;;;;7.30;88.40;95368.63;1699218;83;21013;-52
2022/10/05 00:51:28;;;;;;;17.17;12.35;;;;;;;7.30;88.61;95370.77;1696974;84;20172;-51
2022/10/05 00:54:07;;;;;;;18.37;12.43;;;;;;;7.26;88.69;95368.67;1696834;84;21167;-52
2022/10/05 00:56:55;;;;;;;18.45;13.05;;;;;;;7.21;88.84;95375.19;1697017;84;20953;-52
2022/10/05 00:59:45;;;;;;;17.25;11.50;;;;;;;7.18;89.23;95372.67;1716589;82;20978;-52
2022/10/05 01:02:17;;;;;;;19.32;11.78;;;;;;;7.25;90.13;95368.48;1695910;84;20990;-51
2022/10/05 01:05:16;;;;;;;17.52;11.40;;;;;;;7.40;90.11;95382.76;1696165;84;20977;-52
2022/10/05 01:08:22;;;;;;;18.12;12.40;;;;;;;7.44;89.61;95380.16;1696694;84;21282;-51
2022/10/05 01:11:11;;;;;;;20.15;12.28;;;;;;;7.45;89.90;95365.29;1696655;84;21349;-52
2022/10/05 01:13:45;;;;;;;20.80;12.10;;;;;;;7.53;89.55;95375.55;1696687;84;21080;-51
2022/10/05 01:16:36;;;;;;;15.30;10.88;;;;;;;7.48;89.04;95374.04;1696590;84;20973;-51
2022/10/05 01:19:41;;;;;;;16.80;11.97;;;;;;;7.43;89.00;95369.61;1696804;84;21049;-51
2022/10/05 01:22:33;;;;;;;16.48;12.90;;;;;;;7.42;89.27;95368.06;1696835;83;21145;-52
2022/10/05 01:25:41;;;;;;;17.37;13.18;;;;;;;7.45;89.58;95370.77;1696885;84;21049;-51
2022/10/05 01:28:31;;;;;;;24.95;12.95;;;;;;;7.49;89.70;95373.47;1673032;84;21057;-51
2022/10/05 01:31:21;;;;;;;22.40;12.47;;;;;;;7.57;89.83;95382.53;1675257;85;21049;-52
2022/10/05 01:34:27;;;;;;;13.28;10.58;;;;;;;7.64;89.46;95378.32;1692452;84;21029;-51
2022/10/05 01:37:24;;;;;;;14.23;10.80;;;;;;;7.71;89.16;95381.55;1696744;83;21168;-51
2022/10/05 01:40:22;;;;;;;18.65;12.63;;;;;;;7.69;88.54;95383.94;1696734;84;21117;-52
2022/10/05 01:43:13;;;;;;;21.73;12.93;;;;;;;7.53;88.37;95384.52;1696606;83;21061;-53
2022/10/05 01:46:13;;;;;;;18.67;11.95;;;;;;;7.37;88.66;95386.32;1696704;83;21010;-52
2022/10/05 01:49:39;;;;;;;13.70;10.65;;;;;;;7.36;89.40;95377.33;1696926;83;21015;-52
2022/10/05 01:52:21;;;;;;;12.03;9.03;;;;;;;7.38;89.12;95379.05;1696906;83;21145;-52
2022/10/05 01:55:30;;;;;;;20.20;9.80;;;;;;;7.31;89.36;95372.31;1696736;84;21066;-51
2022/10/05 01:58:18;;;;;;;14.73;9.43;;;;;;;7.31;89.96;95381.89;1692372;84;21041;-53
2022/10/05 02:01:03;;;;;;;20.23;10.70;;;;;;;7.41;90.34;95389.78;1689039;84;21457;-51
2022/10/05 02:03:39;;;;;;;16.42;10.90;;;;;;;7.45;89.90;95401.45;1696814;84;21002;-51
2022/10/05 02:06:14;;;;;;;15.28;10.95;;;;;;;7.43;89.74;95410.09;1696991;83;21470;-52
2022/10/05 02:09:10;;;;;;;15.05;9.98;;;;;;;7.41;90.01;95409.73;1696008;84;20951;-52
2022/10/05 02:11:38;;;;;;;18.98;11.50;;;;;;;7.44;90.21;95408.91;1697077;83;21540;-52
2022/10/05 02:14:12;;;;;;;13.62;10.00;;;;;;;7.43;90.16;95395.62;1696801;84;21046;-52
2022/10/05 02:16:43;;;;;;;18.10;10.32;;;;;;;7.47;90.32;95394.97;1696744;83;21090;-51
2022/10/05 02:19:19;;;;;;;16.00;9.63;;;;;;;7.51;90.14;95392.98;1697140;84;21137;-52
2022/10/05 02:21:54;;;;;;;16.48;9.55;;;;;;;7.55;89.87;95390.36;1696514;84;21643;-52
2022/10/05 02:24:28;;;;;;;14.95;10.13;;;;;;;7.57;89.93;95400.34;1679130;84;21052;-52
2022/10/05 02:26:56;;;;;;;14.30;8.98;;;;;;;7.60;89.74;95406.35;1696851;83;21064;-51
2022/10/05 02:29:27;;;;;;;15.40;9.85;;;;;;;7.56;89.60;95398.00;1703205;83;21005;-51
2022/10/05 02:32:00;;;;;;;20.75;8.20;;;;;;;7.53;89.82;95399.58;1697495;84;21282;-51
2022/10/05 02:34:39;;;;;;;9.85;7.85;;;;;;;7.55;89.89;95401.92;1697451;83;21041;-51
2022/10/05 02:37:19;;;;;;;9.08;6.92;;;;;;;7.59;90.08;95408.91;1696942;84;21057;-52
2022/10/05 02:40:01;;;;;;;16.10;7.50;;;;;;;7.65;90.04;95410.57;1679643;84;21547;-52
2022/10/05 02:42:52;;;;;;;17.67;10.03;;;;;;;7.64;89.90;95412.55;1697541;84;21072;-51
2022/10/05 02:45:28;;;;;;;14.10;8.48;;;;;;;7.67;89.96;95414.45;1697495;84;21231;-52
2022/10/05 02:48:13;;;;;;;16.40;9.83;;;;;;;7.66;89.73;95410.17;1697436;83;21637;-52
2022/10/05 02:50:54;;;;;;;15.58;10.13;;;;;;;7.64;89.74;95414.50;1697643;83;21005;-52
2022/10/05 02:53:32;;;;;;;33.58;12.10;;;;;;;7.62;89.65;95411.40;1697400;84;20957;-52
2022/10/05 02:56:38;;;;;;;21.82;11.70;;;;;;;7.55;89.28;95417.73;1697766;83;21029;-52
2022/10/05 02:59:32;;;;;;;15.68;11.00;;;;;;;7.42;89.27;95428.28;1679401;84;21173;-52
2022/10/05 03:02:24;;;;;;;15.98;10.20;;;;;;;7.37;89.97;95422.66;1697666;84;21077;-50
2022/10/05 03:05:26;;;;;;;14.83;10.50;;;;;;;7.40;90.01;95427.34;1697086;83;22192;-52
2022/10/05 03:08:09;;;;;;;21.17;12.33;;;;;;;7.38;89.98;95421.48;1696824;83;21876;-52
2022/10/05 03:11:31;;;;;;;13.70;10.13;;;;;;;7.37;89.75;95420.53;1697498;83;21013;-51
2022/10/05 03:14:28;;;;;;;13.25;8.08;;;;;;;7.25;89.26;95419.12;1697267;83;21783;-52
2022/10/05 03:17:16;;;;;;;9.15;7.10;;;;;;;7.10;88.91;95419.09;1689894;84;21120;-51
2022/10/05 03:19:55;;;;;;;14.53;8.60;;;;;;;6.99;89.19;95422.34;1697261;84;20977;-51
2022/10/05 03:23:01;;;;;;;14.00;9.33;;;;;;;6.98;89.36;95424.32;1697075;84;20981;-52
2022/10/05 03:26:13;;;;;;;10.88;6.22;;;;;;;6.93;88.97;95423.98;1697511;84;21068;-51
2022/10/05 03:28:52;;;;;;;6.92;6.22;;;;;;;6.82;88.76;95426.04;1703849;82;21053;-51
2022/10/05 03:31:34;;;;;;;20.60;12.37;;;;;;;6.70;88.86;95430.06;1689603;84;21014;-50
2022/10/05 03:34:19;;;;;;;16.65;12.20;;;;;;;6.64;88.71;95428.17;1677466;84;21061;-51
2022/10/05 03:37:01;;;;;;;18.57;13.18;;;;;;;6.53;89.00;95429.64;1689641;84;21113;-52
2022/10/05 03:39:40;;;;;;;28.00;15.73;;;;;;;6.47;89.49;95432.62;1690594;84;21548;-51
2022/10/05 03:42:20;;;;;;;8.63;7.53;;;;;;;6.37;89.28;95437.58;1689658;84;21241;-51
2022/10/05 03:45:12;;;;;;;9.00;6.70;;;;;;;6.22;88.97;95433.44;1690117;84;21101;-52
2022/10/05 03:47:48;;;;;;;12.73;8.43;;;;;;;6.08;88.89;95434.11;1689493;84;21537;-51
2022/10/05 03:50:35;;;;;;;14.95;7.60;;;;;;;6.01;89.24;95447.83;1676723;84;21018;-51
2022/10/05 03:53:10;;;;;;;10.03;7.75;;;;;;;5.99;89.42;95437.90;1689872;84;20958;-51
2022/10/05 03:55:53;;;;;;;10.35;8.20;;;;;;;5.95;89.66;95440.64;1689942;84;21100;-52
2022/10/05 03:58:28;;;;;;;12.00;8.98;;;;;;;5.94;90.01;95439.70;1676463;84;21014;-51
2022/10/05 04:01:01;;;;;;;12.43;9.48;;;;;;;5.95;90.42;95442.61;1689971;84;21537;-52
2022/10/05 04:03:42;;;;;;;18.55;11.22;;;;;;;5.93;90.35;95445.73;1689748;84;21013;-53
2022/10/05 04:06:17;;;;;;;18.37;9.50;;;;;;;5.92;90.22;95447.48;1689977;84;21524;-51
2022/10/05 04:09:02;;;;;;;15.35;10.03;;;;;;;5.90;90.57;95443.80;1689774;84;21157;-51
2022/10/05 04:11:43;;;;;;;12.18;9.23;;;;;;;5.87;90.53;95438.36;1690016;84;21051;-51
2022/10/05 04:14:22;;;;;;;12.20;8.03;;;;;;;5.81;90.61;95438.00;1677263;84;21006;-51
2022/10/05 04:17:06;;;;;;;13.72;8.43;;;;;;;5.76;90.62;95437.03;1689980;84;21029;-53
2022/10/05 04:19:43;;;;;;;9.33;7.45;;;;;;;5.76;90.67;95442.48;1689551;84;20950;-53
2022/10/05 04:22:27;;;;;;;11.33;8.28;;;;;;;5.79;90.57;95440.95;1690261;84;21102;-51
2022/10/05 04:25:17;;;;;;;17.65;10.23;;;;;;;5.80;90.54;95439.17;1689430;84;21022;-53
2022/10/05 04:27:50;;;;;;;14.13;10.88;;;;;;;5.81;90.37;95439.97;1676314;84;21139;-51
2022/10/05 04:30:18;;;;;;;17.40;10.65;;;;;;;5.78;90.04;95444.26;1727682;83;21055;-50
2022/10/05 04:32:59;;;;;;;23.75;12.13;;;;;;;5.72;90.09;95439.02;1729947;83;21611;-51
2022/10/05 04:36:21;;;;;;;13.60;10.65;;;;;;;5.68;90.07;95435.53;1702699;83;21891;-51
2022/10/05 04:39:15;;;;;;;10.48;9.28;;;;;;;5.70;90.22;95431.81;1729901;83;21056;-51
2022/10/05 04:42:14;;;;;;;12.30;9.28;;;;;;;5.71;90.34;95429.27;1701478;83;20962;-51
2022/10/05 04:45:02;;;;;;;21.23;9.80;;;;;;;5.75;90.52;95438.20;1729794;83;20978;-51
2022/10/05 04:47:48;;;;;;;21.30;12.78;;;;;;;5.82;90.48;95437.42;1722018;83;21052;-51
2022/10/05 04:50:27;;;;;;;16.62;11.60;;;;;;;5.89;90.33;95459.20;1729925;83;21055;-52
2022/10/05 04:53:22;;;;;;;18.42;10.50;;;;;;;5.91;90.16;95459.02;1729391;83;21517;-51
2022/10/05 04:56:04;;;;;;;15.98;10.65;;;;;;;5.99;90.64;95462.47;1729862;83;21052;-50
2022/10/05 04:58:49;;;;;;;17.00;9.98;;;;;;;6.03;90.10;95474.14;1728688;83;21008;-51
2022/10/05 05:01:37;;;;;;;27.25;8.68;;;;;;;6.01;89.76;95465.58;1730046;83;20997;-54
2022/10/05 05:04:20;;;;;;;16.15;7.85;;;;;;;5.96;89.52;95470.11;1729883;83;21174;-53
2022/10/05 05:07:12;;;;;;;22.02;9.58;;;;;;;5.92;89.62;95472.06;1729831;83;21512;-56
2022/10/05 05:09:57;;;;;;;20.35;15.58;;;;;;;5.86;89.42;95474.45;1729707;83;21061;-51
2022/10/05 05:12:55;;;;;;;24.60;14.75;;;;;;;5.81;89.50;95470.00;1730068;83;21457;-51
2022/10/05 05:15:52;;;;;;;18.27;13.30;;;;;;;5.80;89.87;95473.91;1730003;83;21016;-51
2022/10/05 05:18:55;;;;;;;12.13;10.18;;;;;;;5.84;90.31;95480.91;1730224;83;21127;-50
2022/10/05 05:22:00;;;;;;;13.58;9.80;;;;;;;5.95;90.55;95482.97;1729818;81;21469;-51
2022/10/05 05:25:28;;;;;;;14.20;9.15;;;;;;;6.06;90.50;95487.00;1729989;83;21042;-53
2022/10/05 05:28:35;;;;;;;17.45;10.58;;;;;;;6.17;90.73;95494.55;1701293;83;21722;-53
2022/10/05 05:31:29;;;;;;;24.05;13.90;;;;;;;6.23;90.35;95495.67;1726028;83;20989;-54
2022/10/05 05:34:40;;;;;;;19.98;11.30;;;;;;;6.26;90.95;95494.86;1682453;84;21816;-51
2022/10/05 05:37:44;;;;;;;17.65;11.80;;;;;;;6.36;90.68;95499.48;1690351;84;21537;-53
2022/10/05 05:40:35;;;;;;;15.63;11.55;;;;;;;6.32;90.58;95509.06;1681158;84;21087;-53
2022/10/05 05:43:11;;;;;;;24.35;12.45;;;;;;;6.35;90.41;95514.33;1648299;84;21075;-56
2022/10/05 05:45:53;;;;;;;18.00;13.28;;;;;;;6.31;90.10;95516.31;1640352;86;21695;-55
2022/10/05 05:48:40;;;;;;;21.35;13.93;;;;;;;6.26;89.89;95511.25;1649711;86;21140;-53
2022/10/05 05:51:18;;;;;;;28.30;16.02;;;;;;;6.13;89.57;95517.02;1661834;84;21013;-53
2022/10/05 05:53:50;;;;;;;22.22;13.43;;;;;;;6.01;89.88;95518.84;1661800;84;21098;-54
2022/10/05 05:56:36;;;;;;;28.77;17.37;;;;;;;5.95;90.45;95519.08;1664462;84;28202;-53
2022/10/05 05:59:27;;;;;;;28.05;15.70;;;;;;;5.95;91.10;95513.61;1671872;84;21145;-53
2022/10/05 06:02:00;;;;;;;36.00;20.08;;;;;;;6.09;92.39;95520.34;1667646;84;22261;-53
2022/10/05 06:04:53;;;;;;;25.48;14.83;;;;;;;6.30;92.79;95527.06;1666042;84;21056;-53
2022/10/05 06:07:24;;;;;;;20.88;14.50;;;;;;;6.48;92.48;95520.88;1665924;84;21164;-52
2022/10/05 06:10:01;;;;;;;44.40;15.08;;;;;;;6.64;92.28;95521.13;1663373;84;21397;-56
2022/10/05 06:12:41;;;;;;;33.85;16.02;;;;;;;6.80;92.13;95520.02;1662141;84;21577;-55
2022/10/05 06:15:36;;;;;;;24.52;17.77;;;;;;;7.00;92.18;95518.27;1636624;86;21225;-53
2022/10/05 06:18:13;;;;;;;28.52;16.32;;;;;;;7.18;91.70;95521.80;1616482;86;21112;-53
2022/10/05 06:21:03;;;;;;;26.35;13.43;;;;;;;7.37;91.04;95525.30;1619644;87;21121;-56
2022/10/05 06:23:38;;;;;;;15.10;12.40;;;;;;;7.51;89.98;95516.95;1613068;85;21525;-56
2022/10/05 06:26:11;;;;;;;15.88;13.13;;;;;;;7.56;88.79;95521.96;1608845;87;21441;-54
2022/10/05 06:28:43;;;;;;;16.82;12.40;;;;;;;7.54;88.11;95533.92;1582275;89;21370;-55
2022/10/05 06:31:23;;;;;;;15.58;11.65;;;;;;;7.54;87.84;95536.66;1582044;89;20940;-55
2022/10/05 06:34:05;;;;;;;14.68;10.75;;;;;;;7.55;87.73;95538.20;1598211;88;21565;-52
2022/10/05 06:36:47;;;;;;;21.00;11.22;;;;;;;7.62;87.75;95534.62;1641446;86;21453;-54
2022/10/05 06:39:32;;;;;;;19.07;11.50;;;;;;;7.79;87.91;95538.53;1608957;87;21618;-54
2022/10/05 06:42:09;;;;;;;14.85;11.75;;;;;;;8.02;87.88;95536.47;1635110;86;21226;-52
2022/10/05 06:45:15;;;;;;;12.65;11.33;;;;;;;8.26;87.25;95527.95;1640845;86;21057;-53
2022/10/05 06:48:09;;;;;;;14.13;9.88;;;;;;;8.45;86.44;95536.11;1578409;86;21079;-53
2022/10/05 06:50:44;;;;;;;15.10;11.45;;;;;;;8.60;85.97;95539.59;1631779;86;21415;-55
2022/10/05 06:54:03;;;;;;;17.75;11.00;;;;;;;8.81;85.83;95538.50;1611109;86;21134;-54
2022/10/05 06:56:48;;;;;;;14.78;10.95;;;;;;;8.98;85.79;95540.94;1608531;86;21329;-57
2022/10/05 06:59:29;;;;;;;14.25;7.12;;;;;;;9.21;85.75;95544.47;1589340;86;20963;-55
2022/10/05 07:02:14;;;;;;;8.98;5.70;;;;;;;9.41;83.68;95529.41;1604740;87;21065;-52
2022/10/05 07:05:20;;;;;;;8.05;5.97;;;;;;;9.51;81.69;95530.59;1574151;89;21086;-53
2022/10/05 07:08:02;;;;;;;20.10;7.03;;;;;;;9.57;80.79;95517.12;1607923;87;21109;-55
2022/10/05 07:10:43;;;;;;;12.10;5.87;;;;;;;9.69;79.56;95526.12;1637453;86;21179;-54
2022/10/05 07:13:35;;;;;;;5.87;5.28;;;;;;;9.85;78.97;95526.20;1558591;90;21046;-52
2022/10/05 07:16:22;;;;;;;11.68;5.60;;;;;;;9.99;77.39;95523.16;1642092;86;21504;-55
2022/10/05 07:19:04;;;;;;;5.10;4.60;;;;;;;10.11;76.80;95526.66;1625489;87;20967;-54
2022/10/05 07:21:43;;;;;;;35.95;13.08;;;;;;;10.26;76.07;95525.16;1629580;86;21591;-56
2022/10/05 07:24:27;;;;;;;12.63;7.22;;;;;;;10.50;75.33;95521.10;1620910;86;21787;-53
2022/10/05 07:27:09;;;;;;;6.00;4.47;;;;;;;10.73;74.33;95524.46;1634868;86;21059;-55
2022/10/05 07:29:59;;;;;;;10.55;5.35;;;;;;;10.91;72.48;95532.48;1639444;86;21096;-55
2022/10/05 07:32:36;;;;;;;15.43;9.65;;;;;;;11.02;72.18;95517.84;1648325;84;21151;-55
2022/10/05 07:38:48;;;;;;;12.37;7.75;;;;;;;11.27;70.96;95546.94;1610863;86;21286;-54
2022/10/05 07:41:33;;;;;;;9.30;5.35;;;;;;;11.50;69.68;95551.48;1591152;88;21847;-55
2022/10/05 07:44:16;;;;;;;17.20;5.55;;;;;;;11.70;68.94;95521.21;1610477;86;21177;-54
2022/10/05 07:47:08;;;;;;;14.40;8.28;;;;;;;11.87;67.76;95519.19;1638871;86;21523;-54
2022/10/05 07:50:08;;;;;;;13.13;10.20;;;;;;;12.03;66.42;95546.69;1582587;87;21115;-54
2022/10/05 07:52:40;;;;;;;5.42;4.58;;;;;;;12.03;64.94;95530.92;1603282;87;21902;-57
2022/10/05 07:55:26;;;;;;;8.93;7.87;;;;;;;12.00;64.85;95546.97;1580810;88;21155;-54
2022/10/05 07:58:17;;;;;;;11.88;7.92;;;;;;;12.05;65.25;95556.08;1606817;87;21176;-58
2022/10/05 08:01:10;;;;;;;4.83;4.28;;;;;;;12.16;64.95;95573.12;1611622;87;21045;-55
2022/10/05 08:04:13;;;;;;;9.80;7.08;;;;;;;12.16;63.89;95574.50;1642304;85;21074;-56
2022/10/05 08:06:52;;;;;;;10.85;6.58;;;;;;;12.10;64.47;95584.50;1635061;86;21356;-57
2022/10/05 08:09:39;;;;;;;10.20;4.92;;;;;;;12.13;65.14;95571.83;1641670;86;21088;-54
2022/10/05 08:12:29;;;;;;;4.60;3.87;;;;;;;12.22;65.00;95569.19;1635016;86;21158;-54
2022/10/05 08:15:10;;;;;;;6.00;4.53;;;;;;;12.34;64.33;95566.48;1630522;87;21931;-53
2022/10/05 08:17:56;;;;;;;10.15;5.47;;;;;;;12.39;64.64;95560.42;1601731;87;21565;-55
2022/10/05 08:20:54;;;;;;;8.30;4.20;;;;;;;12.52;64.93;95548.80;1603446;87;21238;-55
2022/10/05 08:23:48;;;;;;;14.70;4.62;;;;;;;12.61;64.22;95546.94;1610698;87;21081;-58
2022/10/05 08:27:00;;;;;;;13.65;5.05;;;;;;;12.72;63.54;95534.94;1605645;87;21132;-54
2022/10/05 08:29:41;;;;;;;9.50;5.60;;;;;;;12.86;63.48;95529.61;1598393;87;21068;-54
2022/10/05 08:32:25;;;;;;;5.28;4.00;;;;;;;13.02;62.46;95530.27;1609333;87;21022;-52
2022/10/05 08:35:16;;;;;;;11.78;4.22;;;;;;;13.14;61.33;95521.80;1569269;88;21304;-52
2022/10/05 08:37:44;;;;;;;9.50;3.45;;;;;;;13.20;61.19;95526.33;1578792;88;21119;-55
2022/10/05 08:40:32;;;;;;;6.53;3.55;;;;;;;13.29;60.72;95521.50;1628420;86;21028;-55
2022/10/05 08:43:24;;;;;;;14.25;3.72;;;;;;;13.35;59.76;95532.15;1624778;87;21087;-54
2022/10/05 08:46:26;;;;;;;7.17;3.75;;;;;;;13.39;60.46;95532.80;1626135;87;21110;-54
2022/10/05 08:49:22;;;;;;;5.42;3.77;;;;;;;13.50;59.96;95512.49;1630786;86;22417;-56
2022/10/05 08:52:04;;;;;;;4.10;3.40;;;;;;;13.57;58.49;95503.94;1627607;86;21184;-55
2022/10/05 08:55:03;;;;;;;9.20;5.53;;;;;;;13.63;58.18;95485.58;1622049;87;21087;-54
2022/10/05 08:57:52;;;;;;;6.65;4.40;;;;;;;13.71;58.80;95474.42;1631284;86;21065;-52
2022/10/05 09:00:22;;;;;;;10.55;4.35;;;;;;;13.86;58.57;95467.95;1625115;86;21388;-53
2022/10/05 09:03:19;;;;;;;8.73;4.58;;;;;;;14.06;57.37;95463.45;1621883;86;21215;-52
2022/10/05 09:06:16;;;;;;;12.03;4.85;;;;;;;14.18;56.82;95466.79;1588082;89;21093;-58
2022/10/05 09:08:56;;;;;;;7.05;5.75;;;;;;;14.37;56.01;95469.81;1631253;86;21060;-54
2022/10/05 09:11:43;;;;;;;3.27;2.95;;;;;;;14.60;54.36;95466.69;1619717;87;21118;-55
2022/10/05 09:14:31;;;;;;;9.05;3.17;;;;;;;14.86;53.94;95468.03;1627352;86;21154;-54
2022/10/05 09:17:27;;;;;;;3.40;2.30;;;;;;;15.08;53.22;95457.62;1624006;86;21163;-54
2022/10/05 09:20:23;;;;;;;10.08;2.80;;;;;;;15.26;52.18;95454.88;1630010;86;21099;-57
2022/10/05 09:23:00;;;;;;;4.83;2.80;;;;;;;15.51;51.13;95449.07;1617975;86;21026;-55
2022/10/05 09:25:45;;;;;;;9.68;2.95;;;;;;;15.80;50.55;95449.39;1635634;86;21095;-54
2022/10/05 09:28:47;;;;;;;8.30;2.60;;;;;;;16.08;50.20;95466.15;1628843;86;21034;-54
2022/10/05 09:31:52;;;;;;;6.25;1.87;;;;;;;16.28;49.12;95467.80;1631002;86;21363;-55
2022/10/05 09:34:40;;;;;;;3.87;1.75;;;;;;;16.59;47.66;95476.71;1630541;86;21102;-55
2022/10/05 09:37:33;;;;;;;10.70;2.25;;;;;;;16.88;47.21;95481.09;1613671;87;21594;-54
2022/10/05 09:40:28;;;;;;;2.55;1.98;;;;;;;17.00;46.20;95496.16;1625053;86;21040;-53
2022/10/05 09:43:01;;;;;;;4.55;1.82;;;;;;;17.04;46.55;95486.24;1622114;87;21454;-52
2022/10/05 09:46:12;;;;;;;9.08;2.02;;;;;;;17.24;45.57;95485.83;1596506;88;21622;-55
2022/10/05 09:49:01;;;;;;;5.80;1.93;;;;;;;17.33;44.92;95488.58;1624943;86;21041;-54
2022/10/05 09:51:57;;;;;;;5.95;2.30;;;;;;;17.16;44.94;95476.92;1632514;86;21080;-56
2022/10/05 09:54:45;;;;;;;4.53;2.62;;;;;;;17.06;45.83;95474.05;1635301;86;21442;-55
2022/10/05 09:57:27;;;;;;;7.87;1.87;;;;;;;17.50;45.33;95469.48;1574996;87;21061;-54
2022/10/05 10:00:06;;;;;;;6.37;1.95;;;;;;;18.12;44.38;95466.03;1623517;86;21334;-54
2022/10/05 10:03:22;;;;;;;3.15;1.80;;;;;;;18.78;43.13;95461.01;1572219;89;21091;-52
2022/10/05 10:06:12;;;;;;;6.58;1.80;;;;;;;19.53;42.11;95455.69;1625620;86;21138;-54
2022/10/05 10:09:08;;;;;;;4.90;1.55;;;;;;;20.36;40.54;95457.45;1623773;86;21032;-55
2022/10/05 10:12:20;;;;;;;4.28;1.70;;;;;;;20.94;39.27;95464.72;1622555;86;21432;-55
2022/10/05 10:15:12;;;;;;;5.60;2.10;;;;;;;21.21;38.08;95461.99;1611492;87;22673;-55
2022/10/05 10:17:55;;;;;;;4.65;1.82;;;;;;;20.85;38.00;95465.53;1611106;86;21887;-54
2022/10/05 10:20:39;;;;;;;5.90;1.80;;;;;;;20.58;38.33;95466.05;1627481;86;21114;-54
2022/10/05 10:23:38;;;;;;;7.67;1.95;;;;;;;20.48;38.49;95456.28;1638294;86;21039;-56
2022/10/05 10:26:43;;;;;;;8.38;2.60;;;;;;;20.50;38.24;95450.96;1604728;86;21018;-55
2022/10/05 10:29:51;;;;;;;2.22;1.47;;;;;;;20.54;39.25;95450.87;1620655;88;21242;-58
2022/10/05 10:52:00;;;;;;;17.32;12.90;;;;;;;19.22;40.00;95458.30;1688348;82;22248;-52
2022/10/05 10:54:51;;;;;;;9.08;6.80;;;;;;;19.10;39.16;95461.39;1700088;83;21082;-53
2022/10/05 10:57:39;;;;;;;11.97;8.88;;;;;;;19.10;39.05;95462.17;1674697;83;20999;-52
2022/10/05 11:00:55;;;;;;;16.65;13.55;;;;;;;18.97;39.79;95468.68;1690282;83;21157;-52
2022/10/05 11:03:53;;;;;;;6.92;6.22;;;;;;;18.86;39.46;95475.47;1698422;83;21038;-55
2022/10/05 11:06:57;;;;;;;5.72;3.62;;;;;;;18.87;40.14;95474.22;1698474;83;20991;-51
2022/10/05 11:09:51;;;;;;;5.28;3.20;;;;;;;18.87;39.97;95463.06;1698202;83;21097;-52
2022/10/05 11:12:45;;;;;;;8.68;5.05;;;;;;;19.03;40.45;95472.95;1695715;83;21941;-51
2022/10/05 11:15:38;;;;;;;4.12;3.02;;;;;;;19.35;40.84;95473.34;1675735;83;21251;-54
2022/10/05 11:18:16;;;;;;;12.07;3.35;;;;;;;19.73;39.74;95472.44;1698440;83;21063;-54
2022/10/05 11:21:10;;;;;;;4.85;2.75;;;;;;;19.85;39.17;95469.94;1700706;83;21572;-52
2022/10/05 11:24:05;;;;;;;6.05;2.72;;;;;;;19.78;39.22;95468.94;1626617;83;21133;-52
2022/10/05 11:27:07;;;;;;;4.90;2.30;;;;;;;19.70;39.62;95459.46;1695011;83;21872;-52
2022/10/05 11:30:14;;;;;;;12.05;2.45;;;;;;;19.74;39.17;95457.22;1695358;83;22313;-52
2022/10/05 11:33:12;;;;;;;4.97;3.67;;;;;;;19.78;39.96;95475.92;1698136;83;21007;-54
2022/10/05 11:35:56;;;;;;;3.10;1.60;;;;;;;19.90;40.15;95472.02;1690977;83;21739;-57
2022/10/05 11:38:29;;;;;;;7.50;4.65;;;;;;;20.04;39.30;95476.01;1696951;83;21055;-53
2022/10/05 11:41:14;;;;;;;;;;;;;;;20.00;39.55;95479.63;1701447;83;21227;-54
2022/10/05 11:43:56;;;;;;;2.77;2.50;;;;;;;20.00;39.38;95485.99;1699798;83;21236;-52
2022/10/05 11:46:31;;;;;;;2.85;2.55;;;;;;;19.99;39.97;95492.84;1699101;83;21092;-56
2022/10/05 11:49:24;;;;;;;3.62;3.33;;;;;;;19.91;39.54;95493.75;1699401;83;21240;-57
2022/10/05 11:52:26;;;;;;;5.15;3.12;;;;;;;19.67;40.19;95479.20;1698711;83;21844;-53
2022/10/05 11:55:04;;;;;;;;;;;;;;;19.34;39.93;95473.95;1704709;82;20995;-52
2022/10/05 11:57:43;;;;;;;5.17;2.58;;;;;;;19.02;40.97;95474.21;1700243;82;21229;-52
2022/10/05 12:00:18;;;;;;;4.92;3.00;;;;;;;18.89;41.77;95478.71;1701636;82;21050;-53
2022/10/05 12:03:15;;;;;;;5.45;2.50;;;;;;;18.85;42.02;95466.96;1703552;82;21218;-52
2022/10/05 12:06:24;;;;;;;5.00;4.08;;;;;;;18.84;41.64;95464.03;1678928;83;21070;-51
2022/10/05 12:09:16;;;;;;;4.90;3.20;;;;;;;18.91;41.36;95467.84;1700072;82;21442;-53
2022/10/05 12:16:27;;;;;;;5.83;4.08;;;;;;;19.11;41.62;95459.52;1699937;82;21098;-51
2022/10/05 12:18:59;;;;;;;9.25;3.60;;;;;;;19.45;41.10;95453.80;1702379;82;21179;-52
2022/10/05 12:21:51;;;;;;;;;;;;;;;19.67;41.26;95454.08;1677303;83;21043;-50
2022/10/05 12:24:38;;;;;;;6.17;2.80;;;;;;;19.91;40.13;95458.19;1703054;83;20944;-52
2022/10/05 12:27:14;;;;;;;4.03;2.30;;;;;;;19.93;39.41;95459.86;1699854;82;21131;-51
2022/10/05 12:29:49;;;;;;;6.12;2.15;;;;;;;20.04;40.56;95457.85;1704221;82;20983;-52
2022/10/05 12:32:34;;;;;;;3.58;1.60;;;;;;;20.32;40.08;95456.88;1699577;82;21039;-52
2022/10/05 12:35:23;;;;;;;4.62;2.47;;;;;;;20.68;39.66;95447.20;1696744;82;21083;-53
2022/10/05 12:38:13;;;;;;;6.67;2.35;;;;;;;20.81;39.08;95454.56;1700558;82;21053;-52
2022/10/05 12:40:46;;;;;;;2.27;2.12;;;;;;;20.89;38.68;95456.31;1699291;82;21023;-52
2022/10/05 12:43:34;;;;;;;5.70;4.30;;;;;;;20.69;38.62;95448.73;1701360;83;20968;-53
2022/10/05 12:46:07;;;;;;;2.92;2.25;;;;;;;20.52;39.15;95447.81;1698755;82;20987;-53
2022/10/05 12:48:51;;;;;;;8.05;5.80;;;;;;;20.44;40.00;95462.73;1701789;82;21031;-52
2022/10/05 12:51:41;;;;;;;7.03;5.25;;;;;;;20.36;39.06;95457.45;1674203;83;21078;-52
2022/10/05 12:54:26;;;;;;;4.30;2.65;;;;;;;20.23;39.61;95464.80;1699852;83;21181;-52
2022/10/05 12:57:00;;;;;;;10.90;7.60;;;;;;;20.06;39.94;95463.70;1695658;83;21645;-51
2022/10/05 12:59:48;;;;;;;5.60;3.70;;;;;;;19.90;40.22;95467.08;1695463;83;21109;-57
2022/10/05 13:02:43;;;;;;;3.58;2.27;;;;;;;19.76;40.11;95472.86;1698727;83;21067;-56
2022/10/05 13:05:19;;;;;;;4.55;3.47;;;;;;;19.57;40.62;95464.62;1697718;83;21070;-52
2022/10/05 13:08:19;;;;;;;4.42;2.25;;;;;;;19.51;41.28;95476.34;1691213;83;21117;-52
2022/10/05 13:11:01;;;;;;;6.42;3.95;;;;;;;19.50;41.22;95473.42;1698821;83;21039;-53
2022/10/05 13:13:40;;;;;;;11.03;4.27;;;;;;;19.51;41.12;95471.38;1698919;83;21022;-54
2022/10/05 13:16:15;;;;;;;5.05;2.75;;;;;;;19.74;41.12;95466.23;1695433;83;21614;-51
2022/10/05 13:19:15;;;;;;;6.12;3.20;;;;;;;20.04;39.85;95469.80;1698027;83;21645;-52
2022/10/05 13:22:04;;;;;;;48.33;27.05;;;;;;;20.13;40.10;95461.26;1697057;83;21123;-51
2022/10/05 13:24:59;;;;;;;14.53;8.85;;;;;;;20.21;39.73;95471.51;1696559;83;21116;-52
2022/10/05 13:27:30;;;;;;;3.22;2.27;;;;;;;20.35;39.56;95469.25;1700963;82;21030;-52
2022/10/05 13:30:05;;;;;;;27.40;19.15;;;;;;;20.55;39.42;95471.98;1699445;83;21095;-55
2022/10/05 13:32:35;;;;;;;6.58;4.40;;;;;;;20.69;38.97;95461.94;1700139;83;21031;-56